Back to Top

Language: 

My Weather Underground Personal Weather Station Historical Data with Graphs...

Delerius Weather Station Historical Data
Daily Summary for February 28, 2017 Units:  Metric    English   Both
« Previous Day
Next Day »
Daily Weekly Monthly Yearly Custom
  High: Low: Average:
Temperature: 7.1 °C 0.6 °C 3.9 °C
Dew Point: 3.8 °C -0.3 °C 2.1 °C
Humidity: 95 % 72 % 88 %
Wind Speed: 22.5 km/h 0 km/h 10.3 km/h
Wind Gust: 29 km/h - -
Wind:- - WSW
Pressure: 992.4 hPa 980.6 hPa -
Precipitation: 0 mm    
Historical Graphs
 
 
Tabular Data for February 28, 2017
Time Temperature Dew Point Pressure Wind Wind Speed Wind Gust Humidity Rainfall Rate (Hourly) solar Conditions
00:00 0.8 °C -0.1 °C 980.9 hPa West 1.6 km/h 1.6 km/h 94 % 0 mm 0 W/m2
00:05 0.7 °C -0.3 °C 980.9 hPa West 1.6 km/h 3.2 km/h 93 % 0 mm 0 W/m2
00:15 0.8 °C -0.1 °C 980.6 hPa West 3.2 km/h 6.4 km/h 94 % 0 mm 0 W/m2
00:20 0.7 °C -0.1 °C 980.9 hPa West 4.8 km/h 6.4 km/h 94 % 0 mm 0 W/m2
00:25 0.7 °C -0.1 °C 980.6 hPa West 6.4 km/h 6.4 km/h 94 % 0 mm 0 W/m2
00:30 0.8 °C -0.1 °C 980.6 hPa West 8 km/h 11.3 km/h 94 % 0 mm 0 W/m2
00:40 0.9 °C 0.1 °C 980.9 hPa WSW 8 km/h 8 km/h 94 % 0 mm 0 W/m2
00:45 0.9 °C 0.1 °C 980.9 hPa WSW 6.4 km/h 8 km/h 94 % 0 mm 0 W/m2
00:55 0.8 °C -0.1 °C 980.9 hPa WSW 3.2 km/h 4.8 km/h 94 % 0 mm 0 W/m2
01:00 0.8 °C -0.1 °C 980.9 hPa WSW 3.2 km/h 4.8 km/h 94 % 0 mm 0 W/m2
01:05 0.7 °C -0.1 °C 980.9 hPa WSW 3.2 km/h 9.7 km/h 94 % 0 mm 0 W/m2
01:15 0.6 °C -0.3 °C 980.9 hPa WSW 3.2 km/h 9.7 km/h 94 % 0 mm 0 W/m2
01:20 0.6 °C -0.3 °C 980.9 hPa WSW 4.8 km/h 9.7 km/h 94 % 0 mm 0 W/m2
01:25 0.6 °C -0.2 °C 980.9 hPa West 6.4 km/h 11.3 km/h 94 % 0 mm 0 W/m2
01:30 0.8 °C 0.1 °C 980.9 hPa West 9.7 km/h 12.9 km/h 95 % 0 mm 0 W/m2
01:35 0.9 °C 0.2 °C 980.9 hPa West 11.3 km/h 12.9 km/h 95 % 0 mm 0 W/m2
01:40 1.1 °C 0.4 °C 980.9 hPa WSW 11.3 km/h 11.3 km/h 95 % 0 mm 0 W/m2
01:50 1.2 °C 0.4 °C 980.9 hPa WNW 9.7 km/h 11.3 km/h 94 % 0 mm 0 W/m2
01:55 1.2 °C 0.4 °C 980.9 hPa WNW 11.3 km/h 14.5 km/h 94 % 0 mm 0 W/m2
02:00 1.3 °C 0.5 °C 980.9 hPa West 11.3 km/h 11.3 km/h 94 % 0 mm 0 W/m2
02:05 1.4 °C 0.6 °C 980.9 hPa WNW 11.3 km/h 11.3 km/h 94 % 0 mm 0 W/m2
02:10 1.4 °C 0.6 °C 980.9 hPa West 11.3 km/h 11.3 km/h 94 % 0 mm 0 W/m2
02:20 1.5 °C 0.7 °C 980.9 hPa West 8 km/h 8 km/h 94 % 0 mm 0 W/m2
02:25 1.5 °C 0.7 °C 980.9 hPa West 4.8 km/h 9.7 km/h 94 % 0 mm 0 W/m2
02:30 1.5 °C 0.7 °C 980.9 hPa West 4.8 km/h 4.8 km/h 94 % 0 mm 0 W/m2
02:35 1.6 °C 0.7 °C 981.3 hPa WNW 6.4 km/h 6.4 km/h 94 % 0 mm 0 W/m2
02:40 1.6 °C 0.7 °C 981.3 hPa WNW 8 km/h 8 km/h 94 % 0 mm 0 W/m2
02:45 1.6 °C 0.7 °C 981.3 hPa West 8 km/h 9.7 km/h 94 % 0 mm 0 W/m2
02:55 1.6 °C 0.7 °C 981.3 hPa WNW 8 km/h 14.5 km/h 94 % 0 mm 0 W/m2
03:00 1.6 °C 0.7 °C 981.3 hPa West 11.3 km/h 14.5 km/h 94 % 0 mm 0 W/m2
03:05 1.7 °C 0.7 °C 981.3 hPa WNW 11.3 km/h 14.5 km/h 93 % 0 mm 0 W/m2
03:10 1.6 °C 0.6 °C 981.3 hPa West 11.3 km/h 14.5 km/h 93 % 0 mm 0 W/m2
03:20 1.6 °C 0.6 °C 981.3 hPa WNW 9.7 km/h 9.7 km/h 93 % 0 mm 0 W/m2
03:30 1.6 °C 0.6 °C 981.3 hPa West 8 km/h 8 km/h 93 % 0 mm 0 W/m2
03:35 1.6 °C 0.6 °C 981.3 hPa West 6.4 km/h 9.7 km/h 93 % 0 mm 0 W/m2
03:40 1.5 °C 0.5 °C 980.9 hPa West 4.8 km/h 4.8 km/h 93 % 0 mm 0 W/m2
03:45 1.4 °C 0.3 °C 981.3 hPa West 3.2 km/h 9.7 km/h 92 % 0 mm 0 W/m2
03:50 1.4 °C 0.2 °C 981.3 hPa West 1.6 km/h 1.6 km/h 92 % 0 mm 0 W/m2
04:00 1.2 °C 0 °C 981.3 hPa WSW 1.6 km/h 9.7 km/h 92 % 0 mm 0 W/m2
04:05 1.2 °C 0.2 °C 981.3 hPa SW 4.8 km/h 9.7 km/h 93 % 0 mm 0 W/m2
04:10 1.2 °C 0.2 °C 981.3 hPa West 6.4 km/h 9.7 km/h 93 % 0 mm 0 W/m2
04:15 1.1 °C 0.1 °C 981.3 hPa WNW 8 km/h 11.3 km/h 93 % 0 mm 0 W/m2
04:20 1.1 °C 0.1 °C 981.3 hPa WSW 9.7 km/h 9.7 km/h 93 % 0 mm 0 W/m2
04:25 1.1 °C 0.1 °C 981.3 hPa West 8 km/h 9.7 km/h 93 % 0 mm 0 W/m2
04:35 1.2 °C 0.3 °C 981.6 hPa WSW 8 km/h 9.7 km/h 94 % 0 mm 0 W/m2
04:40 1.1 °C 0.1 °C 981.6 hPa WSW 6.4 km/h 9.7 km/h 93 % 0 mm 0 W/m2
04:45 1.1 °C 0.1 °C 981.6 hPa WSW 4.8 km/h 9.7 km/h 93 % 0 mm 0 W/m2
04:50 1.1 °C 0.1 °C 981.6 hPa WSW 1.6 km/h 1.6 km/h 93 % 0 mm 0 W/m2
05:00 0.9 °C -0.1 °C 981.9 hPa WSW 1.6 km/h 11.3 km/h 93 % 0 mm 0 W/m2
05:05 0.9 °C -0.1 °C 981.9 hPa West 3.2 km/h 11.3 km/h 93 % 0 mm 0 W/m2
05:15 1 °C 0.2 °C 981.9 hPa WNW 4.8 km/h 9.7 km/h 94 % 0 mm 0 W/m2
05:20 1.1 °C 0.3 °C 981.9 hPa WNW 3.2 km/h 3.2 km/h 94 % 0 mm 0 W/m2
05:25 1.2 °C 0.3 °C 981.9 hPa WNW 1.6 km/h 9.7 km/h 94 % 0 mm 0 W/m2
05:30 1.2 °C 0.4 °C 982.3 hPa WSW 3.2 km/h 9.7 km/h 94 % 0 mm 0 W/m2
05:40 1.6 °C 0.7 °C 982.3 hPa WSW 11.3 km/h 16.1 km/h 94 % 0 mm 0 W/m2
05:45 1.6 °C 0.7 °C 982.3 hPa West 14.5 km/h 16.1 km/h 94 % 0 mm 0 W/m2
05:50 1.6 °C 0.7 °C 982.3 hPa WNW 12.9 km/h 12.9 km/h 94 % 0 mm 0 W/m2
05:55 1.6 °C 0.6 °C 982.3 hPa West 8 km/h 12.9 km/h 93 % 0 mm 0 W/m2
06:00 1.6 °C 0.6 °C 982.3 hPa West 8 km/h 9.7 km/h 93 % 0 mm 0 W/m2
06:05 1.6 °C 0.6 °C 982.3 hPa West 9.7 km/h 12.9 km/h 93 % 0 mm 0 W/m2
06:15 1.6 °C 0.6 °C 982.3 hPa WNW 8 km/h 11.3 km/h 93 % 0 mm 0 W/m2
06:20 1.5 °C 0.5 °C 982.3 hPa West 6.4 km/h 12.9 km/h 93 % 0 mm 0 W/m2
06:25 1.5 °C 0.5 °C 982.3 hPa WSW 8 km/h 20.9 km/h 93 % 0 mm 0 W/m2
06:30 1.6 °C 0.6 °C 982.3 hPa WSW 12.9 km/h 12.9 km/h 93 % 0 mm 0 W/m2
06:35 1.6 °C 0.6 °C 982.6 hPa West 16.1 km/h 16.1 km/h 93 % 0 mm 0 W/m2
06:45 1.6 °C 0.6 °C 982.3 hPa WSW 12.9 km/h 19.3 km/h 93 % 0 mm 0 W/m2
06:50 1.6 °C 0.6 °C 982.3 hPa WSW 12.9 km/h 12.9 km/h 93 % 0 mm 0 W/m2
07:00 1.4 °C 0.4 °C 982.6 hPa WSW 11.3 km/h 11.3 km/h 93 % 0 mm 5 W/m2
07:05 1.4 °C 0.4 °C 982.6 hPa West 9.7 km/h 11.3 km/h 93 % 0 mm 11 W/m2
07:10 1.3 °C 0.3 °C 982.6 hPa WSW 8 km/h 12.9 km/h 93 % 0 mm 19 W/m2
07:20 1.3 °C 0.3 °C 982.6 hPa WSW 11.3 km/h 11.3 km/h 93 % 0 mm 26 W/m2
07:25 1.4 °C 0.4 °C 982.6 hPa WSW 11.3 km/h 11.3 km/h 93 % 0 mm 49 W/m2
07:30 1.5 °C 0.5 °C 982.6 hPa WSW 11.3 km/h 11.3 km/h 93 % 0 mm 74 W/m2
07:35 1.6 °C 0.6 °C 982.6 hPa West 9.7 km/h 11.3 km/h 93 % 0 mm 84 W/m2
07:40 1.7 °C 0.7 °C 982.6 hPa West 9.7 km/h 14.5 km/h 93 % 0 mm 98 W/m2
07:45 1.8 °C 0.8 °C 983 hPa West 12.9 km/h 20.9 km/h 93 % 0 mm 35 W/m2
07:55 1.9 °C 0.7 °C 983 hPa West 16.1 km/h 16.1 km/h 92 % 0 mm 130 W/m2
08:00 2.1 °C 0.9 °C 983 hPa WSW 12.9 km/h 14.5 km/h 92 % 0 mm 102 W/m2
08:05 2.2 °C 1 °C 983 hPa West 12.9 km/h 14.5 km/h 92 % 0 mm 51 W/m2
08:10 2.2 °C 1.1 °C 983 hPa WNW 12.9 km/h 12.9 km/h 92 % 0 mm 167 W/m2
08:15 2.3 °C 1.2 °C 983 hPa West 14.5 km/h 14.5 km/h 92 % 0 mm 174 W/m2
08:25 2.7 °C 1.3 °C 983 hPa West 14.5 km/h 19.3 km/h 91 % 0 mm 239 W/m2
08:30 2.7 °C 1.4 °C 983 hPa West 16.1 km/h 16.1 km/h 91 % 0 mm 90 W/m2
08:35 2.7 °C 1.4 °C 983 hPa WSW 16.1 km/h 24.1 km/h 91 % 0 mm 97 W/m2
08:40 2.8 °C 1.4 °C 983 hPa WSW 17.7 km/h 22.5 km/h 91 % 0 mm 58 W/m2
08:45 2.8 °C 1.4 °C 983.3 hPa West 19.3 km/h 22.5 km/h 91 % 0 mm 98 W/m2
08:50 2.9 °C 1.6 °C 983 hPa West 19.3 km/h 19.3 km/h 91 % 0 mm 100 W/m2
09:00 3.2 °C 1.9 °C 983 hPa West 14.5 km/h 14.5 km/h 91 % 0 mm 288 W/m2
09:05 3.4 °C 1.9 °C 983.3 hPa WSW 16.1 km/h 25.7 km/h 90 % 0 mm 322 W/m2
09:10 3.6 °C 2.1 °C 983.3 hPa West 17.7 km/h 17.7 km/h 90 % 0 mm 309 W/m2
09:20 3.8 °C 2.1 °C 983.3 hPa West 19.3 km/h 24.1 km/h 89 % 0 mm 355 W/m2
09:25 3.8 °C 2 °C 983.6 hPa WNW 19.3 km/h 24.1 km/h 88 % 0 mm 369 W/m2
09:35 3.8 °C 2 °C 983.6 hPa SW 22.5 km/h 22.5 km/h 88 % 0 mm 406 W/m2
09:40 3.8 °C 2 °C 983.6 hPa WNW 19.3 km/h 19.3 km/h 88 % 0 mm 301 W/m2
09:45 3.9 °C 2.1 °C 983.6 hPa WNW 16.1 km/h 22.5 km/h 88 % 0 mm 394 W/m2
09:50 4.1 °C 2.3 °C 983.6 hPa West 12.9 km/h 12.9 km/h 88 % 0 mm 192 W/m2
09:55 4.3 °C 2.5 °C 983.6 hPa West 12.9 km/h 24.1 km/h 88 % 0 mm 353 W/m2
10:05 4.7 °C 2.2 °C 983.6 hPa West 17.7 km/h 20.9 km/h 84 % 0 mm 417 W/m2
10:10 4.8 °C 2.3 °C 983.6 hPa WSW 17.7 km/h 17.7 km/h 84 % 0 mm 450 W/m2
10:15 5.1 °C 2.6 °C 983.6 hPa West 14.5 km/h 19.3 km/h 84 % 0 mm 429 W/m2
10:20 5.2 °C 2.7 °C 983.6 hPa WNW 16.1 km/h 25.7 km/h 84 % 0 mm 439 W/m2
10:25 5.3 °C 2.6 °C 983.6 hPa West 17.7 km/h 25.7 km/h 83 % 0 mm 543 W/m2
10:30 5.6 °C 2.9 °C 983.6 hPa WSW 16.1 km/h 20.9 km/h 83 % 0 mm 552 W/m2
10:40 5.6 °C 2.7 °C 983.6 hPa West 17.7 km/h 17.7 km/h 82 % 0 mm 418 W/m2
10:45 5.7 °C 2.8 °C 983.6 hPa WSW 16.1 km/h 17.7 km/h 82 % 0 mm 485 W/m2
10:50 5.8 °C 2.8 °C 984 hPa WSW 14.5 km/h 20.9 km/h 81 % 0 mm 476 W/m2
10:55 5.8 °C 2.7 °C 983.6 hPa West 14.5 km/h 20.9 km/h 80 % 0 mm 612 W/m2
11:00 5.9 °C 2.8 °C 983.6 hPa West 16.1 km/h 16.1 km/h 80 % 0 mm 612 W/m2
11:10 5.9 °C 2.7 °C 983.6 hPa West 20.9 km/h 22.5 km/h 80 % 0 mm 520 W/m2
11:15 5.9 °C 2.7 °C 983.6 hPa WSW 20.9 km/h 22.5 km/h 80 % 0 mm 169 W/m2
11:20 6 °C 3 °C 983.6 hPa WSW 20.9 km/h 20.9 km/h 81 % 0 mm 513 W/m2
11:25 6.3 °C 3.3 °C 983.6 hPa WSW 16.1 km/h 20.9 km/h 81 % 0 mm 529 W/m2
11:30 6.3 °C 3.1 °C 984 hPa SW 17.7 km/h 20.9 km/h 80 % 0 mm 529 W/m2
11:35 6.1 °C 2.7 °C 984 hPa WSW 22.5 km/h 22.5 km/h 79 % 0 mm 548 W/m2
11:45 6.2 °C 2.9 °C 984 hPa West 19.3 km/h 20.9 km/h 80 % 0 mm 221 W/m2
11:50 6.3 °C 3.1 °C 984.3 hPa SW 20.9 km/h 22.5 km/h 80 % 0 mm 640 W/m2
11:55 6.5 °C 3.3 °C 984.3 hPa SW 19.3 km/h 24.1 km/h 80 % 0 mm 533 W/m2
12:00 6.6 °C 3.4 °C 984 hPa West 19.3 km/h 29 km/h 80 % 0 mm 566 W/m2
12:05 6.8 °C 3.6 °C 984.3 hPa WNW 17.7 km/h 29 km/h 80 % 0 mm 788 W/m2
12:15 6.7 °C 2.9 °C 984.3 hPa WNW 19.3 km/h 19.3 km/h 77 % 0 mm 199 W/m2
12:20 6.4 °C 2.9 °C 984.3 hPa WSW 19.3 km/h 20.9 km/h 78 % 0 mm 612 W/m2
12:25 6.3 °C 2.8 °C 984.3 hPa WSW 19.3 km/h 24.1 km/h 78 % 0 mm 561 W/m2
12:30 6.4 °C 3.1 °C 984.3 hPa SSW 17.7 km/h 19.3 km/h 79 % 0 mm 534 W/m2
12:40 6.6 °C 2.7 °C 984.3 hPa SW 20.9 km/h 20.9 km/h 76 % 0 mm 541 W/m2
12:45 6.7 °C 2.8 °C 984.3 hPa West 20.9 km/h 24.1 km/h 76 % 0 mm 531 W/m2
12:50 6.8 °C 2.7 °C 984.3 hPa WNW 17.7 km/h 17.7 km/h 75 % 0 mm 510 W/m2
13:00 6.7 °C 2.2 °C 984.3 hPa West 22.5 km/h 24.1 km/h 73 % 0 mm 526 W/m2
13:05 6.7 °C 2.4 °C 984.3 hPa West 22.5 km/h 24.1 km/h 74 % 0 mm 522 W/m2
13:10 6.8 °C 2.5 °C 984.3 hPa West 19.3 km/h 19.3 km/h 74 % 0 mm 538 W/m2
13:15 7 °C 2.5 °C 984.3 hPa West 20.9 km/h 24.1 km/h 73 % 0 mm 519 W/m2
13:25 7 °C 2.3 °C 984.3 hPa West 22.5 km/h 29 km/h 72 % 0 mm 517 W/m2
13:30 7 °C 2.5 °C 984.3 hPa WSW 22.5 km/h 22.5 km/h 73 % 0 mm 520 W/m2
13:35 7.1 °C 2.7 °C 984.3 hPa West 19.3 km/h 25.7 km/h 74 % 0 mm 541 W/m2
13:40 6.8 °C 2.3 °C 984.6 hPa WSW 17.7 km/h 17.7 km/h 73 % 0 mm 141 W/m2
13:45 6.6 °C 2.3 °C 984.3 hPa SW 20.9 km/h 20.9 km/h 74 % 0 mm 156 W/m2
13:55 6.8 °C 2.7 °C 984.3 hPa WSW 19.3 km/h 24.1 km/h 75 % 0 mm 531 W/m2
14:00 6.9 °C 2.8 °C 984.6 hPa WSW 17.7 km/h 17.7 km/h 75 % 0 mm 527 W/m2
14:05 6.9 °C 2.8 °C 984.6 hPa SSW 17.7 km/h 17.7 km/h 75 % 0 mm 512 W/m2
14:10 6.8 °C 2.9 °C 984.6 hPa WSW 16.1 km/h 20.9 km/h 76 % 0 mm 548 W/m2
14:15 6.8 °C 2.7 °C 984.6 hPa SW 17.7 km/h 20.9 km/h 75 % 0 mm 468 W/m2
14:20 6.9 °C 2.9 °C 984.6 hPa SW 19.3 km/h 19.3 km/h 76 % 0 mm 439 W/m2
14:30 6.9 °C 2.9 °C 984.6 hPa SSW 16.1 km/h 16.1 km/h 76 % 0 mm 267 W/m2
14:35 6.7 °C 2.8 °C 985 hPa SW 14.5 km/h 16.1 km/h 76 % 0 mm 213 W/m2
14:40 6.7 °C 3.1 °C 985 hPa SSW 14.5 km/h 14.5 km/h 78 % 0 mm 397 W/m2
14:45 7 °C 3.1 °C 985 hPa WSW 14.5 km/h 14.5 km/h 76 % 0 mm 531 W/m2
14:50 7 °C 3.1 °C 985 hPa SW 16.1 km/h 16.1 km/h 76 % 0 mm 406 W/m2
15:00 6.6 °C 2.9 °C 985 hPa SW 12.9 km/h 12.9 km/h 77 % 0 mm 190 W/m2
15:05 6.6 °C 2.8 °C 985 hPa SW 12.9 km/h 12.9 km/h 77 % 0 mm 178 W/m2
15:10 6.4 °C 2.7 °C 985 hPa WSW 11.3 km/h 11.3 km/h 77 % 0 mm 214 W/m2
15:15 6.6 °C 3.2 °C 985 hPa WSW 9.7 km/h 14.5 km/h 79 % 0 mm 155 W/m2
15:20 6.6 °C 3.1 °C 985 hPa West 11.3 km/h 11.3 km/h 78 % 0 mm 102 W/m2
15:25 6.4 °C 3.1 °C 985 hPa SSW 14.5 km/h 14.5 km/h 79 % 0 mm 109 W/m2
15:30 6.2 °C 2.8 °C 985 hPa SSW 12.9 km/h 16.1 km/h 79 % 0 mm 105 W/m2
15:35 6.1 °C 2.9 °C 985 hPa SW 12.9 km/h 16.1 km/h 80 % 0 mm 79 W/m2
15:40 6.1 °C 3.1 °C 985 hPa SSW 11.3 km/h 11.3 km/h 81 % 0 mm 65 W/m2
15:45 6.1 °C 3.1 °C 985.3 hPa SW 9.7 km/h 16.1 km/h 81 % 0 mm 65 W/m2
15:50 5.9 °C 3.1 °C 985.3 hPa SSW 9.7 km/h 9.7 km/h 82 % 0 mm 76 W/m2
15:55 5.9 °C 3.2 °C 985.3 hPa SW 11.3 km/h 11.3 km/h 83 % 0 mm 74 W/m2
16:05 5.8 °C 3.3 °C 985.3 hPa SW 8 km/h 11.3 km/h 84 % 0 mm 53 W/m2
16:10 5.8 °C 3.3 °C 985.3 hPa SSW 6.4 km/h 9.7 km/h 84 % 0 mm 39 W/m2
16:20 5.7 °C 3.4 °C 985.3 hPa South 8 km/h 8 km/h 85 % 0 mm 26 W/m2
16:25 5.7 °C 3.6 °C 985.3 hPa South 6.4 km/h 9.7 km/h 86 % 0 mm 28 W/m2
16:30 5.7 °C 3.5 °C 985.3 hPa SSW 8 km/h 8 km/h 86 % 0 mm 28 W/m2
16:40 5.5 °C 3.5 °C 985.3 hPa SSW 8 km/h 9.7 km/h 87 % 0 mm 32 W/m2
16:45 5.5 °C 3.7 °C 985.3 hPa SSW 6.4 km/h 9.7 km/h 88 % 0 mm 26 W/m2
16:50 5.5 °C 3.7 °C 985.3 hPa South 4.8 km/h 9.7 km/h 88 % 0 mm 28 W/m2
16:55 5.5 °C 3.7 °C 985.3 hPa SSW 3.2 km/h 9.7 km/h 88 % 0 mm 18 W/m2
17:00 5.5 °C 3.7 °C 985.3 hPa South 4.8 km/h 4.8 km/h 88 % 0 mm 11 W/m2
17:05 5.4 °C 3.4 °C 985.3 hPa SSW 6.4 km/h 6.4 km/h 87 % 0 mm 9 W/m2
17:15 5.3 °C 3.5 °C 985.7 hPa South 4.8 km/h 8 km/h 88 % 0 mm 5 W/m2
17:20 5.3 °C 3.4 °C 985.7 hPa South 6.4 km/h 6.4 km/h 88 % 0 mm 5 W/m2
17:25 5.2 °C 3.4 °C 985.7 hPa South 6.4 km/h 8 km/h 88 % 0 mm 5 W/m2
17:30 5.2 °C 3.5 °C 985.7 hPa South 6.4 km/h 9.7 km/h 89 % 0 mm 0 W/m2
17:35 5.2 °C 3.5 °C 985.7 hPa SSE 4.8 km/h 9.7 km/h 89 % 0 mm 0 W/m2
17:45 5.1 °C 3.4 °C 986 hPa South 3.2 km/h 9.7 km/h 89 % 0 mm 0 W/m2
17:50 5.1 °C 3.6 °C 986 hPa SSE 3.2 km/h 9.7 km/h 90 % 0 mm 0 W/m2
17:55 5.1 °C 3.6 °C 986 hPa South 3.2 km/h 9.7 km/h 90 % 0 mm 0 W/m2
18:00 5.1 °C 3.6 °C 986 hPa South 3.2 km/h 3.2 km/h 90 % 0 mm 0 W/m2
18:05 5.1 °C 3.6 °C 986 hPa South 3.2 km/h 9.7 km/h 90 % 0 mm 0 W/m2
18:10 5 °C 3.5 °C 986 hPa South 3.2 km/h 3.2 km/h 90 % 0 mm 0 W/m2
18:20 5.1 °C 3.7 °C 986.3 hPa Calm   9.7 km/h 91 % 0 mm 0 W/m2
18:25 5.1 °C 3.7 °C 986.3 hPa Calm   9.7 km/h 91 % 0 mm 0 W/m2
18:30 5.1 °C 3.8 °C 986.3 hPa SSW 1.6 km/h 9.7 km/h 91 % 0 mm 0 W/m2
18:35 5.1 °C 3.8 °C 986.3 hPa SSW 1.6 km/h 9.7 km/h 91 % 0 mm 0 W/m2
18:45 5.1 °C 3.6 °C 986.7 hPa SSW 3.2 km/h 3.2 km/h 90 % 0 mm 0 W/m2
18:50 5.1 °C 3.6 °C 986.7 hPa WSW 3.2 km/h 9.7 km/h 90 % 0 mm 0 W/m2
18:55 5.1 °C 3.6 °C 987 hPa WSW 3.2 km/h 9.7 km/h 90 % 0 mm 0 W/m2
19:05 5.1 °C 3.4 °C 987 hPa WSW 6.4 km/h 9.7 km/h 89 % 0 mm 0 W/m2
19:10 5.1 °C 3.4 °C 987.4 hPa WSW 8 km/h 12.9 km/h 89 % 0 mm 0 W/m2
19:15 5 °C 3.2 °C 987.4 hPa WSW 9.7 km/h 12.9 km/h 88 % 0 mm 0 W/m2
19:25 4.9 °C 2.9 °C 987.4 hPa West 6.4 km/h 9.7 km/h 87 % 0 mm 0 W/m2
19:30 4.8 °C 2.8 °C 987.4 hPa West 4.8 km/h 4.8 km/h 87 % 0 mm 0 W/m2
19:35 4.7 °C 2.7 °C 987.4 hPa WNW 4.8 km/h 6.4 km/h 87 % 0 mm 0 W/m2
19:40 4.7 °C 2.7 °C 987.7 hPa WNW 4.8 km/h 4.8 km/h 87 % 0 mm 0 W/m2
19:45 4.6 °C 2.6 °C 987.7 hPa WNW 3.2 km/h 9.7 km/h 87 % 0 mm 0 W/m2
19:50 4.6 °C 2.7 °C 987.7 hPa WNW 1.6 km/h 9.7 km/h 88 % 0 mm 0 W/m2
20:00 4.5 °C 2.7 °C 987.7 hPa WNW 1.6 km/h 9.7 km/h 88 % 0 mm 0 W/m2
20:05 4.4 °C 2.6 °C 988 hPa WNW 1.6 km/h 9.7 km/h 88 % 0 mm 0 W/m2
20:10 4.4 °C 2.8 °C 988 hPa WNW 1.6 km/h 9.7 km/h 89 % 0 mm 0 W/m2
20:15 4.4 °C 2.8 °C 988 hPa WNW 3.2 km/h 9.7 km/h 89 % 0 mm 0 W/m2
20:20 4.4 °C 2.8 °C 988.4 hPa WNW 3.2 km/h 9.7 km/h 89 % 0 mm 0 W/m2
20:30 4.5 °C 2.8 °C 988.4 hPa WNW 3.2 km/h 9.7 km/h 89 % 0 mm 0 W/m2
20:35 4.5 °C 2.8 °C 988.7 hPa WNW 6.4 km/h 9.7 km/h 89 % 0 mm 0 W/m2
20:40 4.5 °C 3 °C 988.7 hPa NW 8 km/h 9.7 km/h 90 % 0 mm 0 W/m2
20:45 4.6 °C 3.1 °C 988.7 hPa NW 8 km/h 9.7 km/h 90 % 0 mm 0 W/m2
20:50 4.6 °C 2.9 °C 989.1 hPa NW 4.8 km/h 4.8 km/h 89 % 0 mm 0 W/m2
20:55 4.6 °C 2.9 °C 989.1 hPa WNW 4.8 km/h 9.7 km/h 89 % 0 mm 0 W/m2
21:00 4.6 °C 3.1 °C 989.4 hPa NW 6.4 km/h 9.7 km/h 90 % 0 mm 0 W/m2
21:05 4.6 °C 3.1 °C 989.4 hPa WNW 4.8 km/h 9.7 km/h 90 % 0 mm 0 W/m2
21:10 4.6 °C 3.1 °C 989.4 hPa WNW 4.8 km/h 9.7 km/h 90 % 0 mm 0 W/m2
21:15 4.7 °C 3.2 °C 989.7 hPa WNW 8 km/h 11.3 km/h 90 % 0 mm 0 W/m2
21:25 4.7 °C 3.4 °C 990.1 hPa WNW 9.7 km/h 14.5 km/h 91 % 0 mm 0 W/m2
21:30 4.7 °C 3.3 °C 990.1 hPa WNW 9.7 km/h 11.3 km/h 91 % 0 mm 0 W/m2
21:35 4.6 °C 3.4 °C 990.1 hPa WNW 9.7 km/h 11.3 km/h 92 % 0 mm 0 W/m2
21:45 4.6 °C 3.4 °C 990.1 hPa WNW 8 km/h 9.7 km/h 92 % 0 mm 0 W/m2
21:50 4.5 °C 3.3 °C 990.1 hPa WNW 8 km/h 8 km/h 92 % 0 mm 0 W/m2
21:55 4.5 °C 3.3 °C 990.4 hPa WNW 8 km/h 9.7 km/h 92 % 0 mm 0 W/m2
22:00 4.4 °C 3.2 °C 990.4 hPa WNW 8 km/h 11.3 km/h 92 % 0 mm 0 W/m2
22:10 4.3 °C 3.1 °C 990.7 hPa NW 9.7 km/h 12.9 km/h 92 % 0 mm 0 W/m2
22:15 4.2 °C 3.2 °C 990.7 hPa NW 11.3 km/h 12.9 km/h 93 % 0 mm 0 W/m2
22:20 4.2 °C 3.2 °C 990.7 hPa NW 11.3 km/h 11.3 km/h 93 % 0 mm 0 W/m2
22:25 4.2 °C 3.1 °C 990.7 hPa NW 9.7 km/h 11.3 km/h 93 % 0 mm 0 W/m2
22:30 4.2 °C 3.1 °C 990.7 hPa NW 9.7 km/h 9.7 km/h 93 % 0 mm 0 W/m2
22:35 4.1 °C 3.1 °C 991.1 hPa WNW 9.7 km/h 9.7 km/h 93 % 0 mm 0 W/m2
22:45 4.2 °C 3.1 °C 991.1 hPa WNW 6.4 km/h 9.7 km/h 93 % 0 mm 0 W/m2
22:50 4.2 °C 3.1 °C 991.4 hPa WNW 4.8 km/h 4.8 km/h 93 % 0 mm 0 W/m2
22:55 4.2 °C 3.1 °C 991.4 hPa WNW 4.8 km/h 9.7 km/h 93 % 0 mm 0 W/m2
23:00 4.1 °C 3 °C 991.4 hPa West 8 km/h 19.3 km/h 93 % 0 mm 0 W/m2
23:05 4 °C 2.8 °C 991.4 hPa NNW 9.7 km/h 19.3 km/h 92 % 0 mm 0 W/m2
23:15 3.8 °C 2.6 °C 991.8 hPa WNW 11.3 km/h 12.9 km/h 92 % 0 mm 0 W/m2
23:20 3.7 °C 2.6 °C 991.8 hPa West 9.7 km/h 9.7 km/h 92 % 0 mm 0 W/m2
23:25 3.6 °C 2.4 °C 992.1 hPa NW 11.3 km/h 11.3 km/h 92 % 0 mm 0 W/m2
23:30 3.6 °C 2.4 °C 992.1 hPa WNW 11.3 km/h 11.3 km/h 92 % 0 mm 0 W/m2
23:35 3.4 °C 2.3 °C 992.4 hPa WNW 11.3 km/h 11.3 km/h 92 % 0 mm 0 W/m2
23:40 3.4 °C 2.2 °C 992.4 hPa WNW 9.7 km/h 9.7 km/h 92 % 0 mm 0 W/m2
23:50 3.3 °C 2.1 °C 992.4 hPa WNW 8 km/h 9.7 km/h 92 % 0 mm 0 W/m2
23:55 3.2 °C 2 °C 992.4 hPa NW 8 km/h 12.9 km/h 92 % 0 mm 0 W/m2
Delerius-Weather
Compliments of Weather Underground - 2 mb

Data updates at regular intervals.